Time;durP1;ratioP1;P1;durP2;ratioP2;P2;SDS_P1;SDS_P2;PMS_P1;PMS_P2;Temp;Humidity;BMP_temperature;BMP_pressure;BME280_temperature;BME280_humidity;BME280_pressure;Samples;Min_cycle;Max_cycle;Signal;HPM_P1;HPM_P2
2022/08/07 00:01:53;;;;;;;;;;;;;;;;;;4935137;28;20385;-84
2022/08/07 00:04:18;;;;;;;;;;;;;;;;;;4942511;29;19954;-84
2022/08/07 00:06:43;;;;;;;;;;;;;;;;;;4933891;29;20353;-84
2022/08/07 00:09:08;;;;;;;;;;;;;;;;;;4934141;29;19919;-84
2022/08/07 00:11:34;;;;;;;;;;;;;;;;;;4932534;28;20179;-85
2022/08/07 00:13:59;;;;;;;;;;;;;;;;;;4929860;29;19914;-84
2022/08/07 00:16:24;;;;;;;;;;;;;;;;;;4933721;29;19919;-84
2022/08/07 00:18:49;;;;;;;;;;;;;;;;;;4934749;29;20288;-84
2022/08/07 00:21:14;;;;;;;;;;;;;;;;;;4933831;28;19918;-85
2022/08/07 00:23:40;;;;;;;;;;;;;;;;;;4932829;29;20385;-85
2022/08/07 00:26:05;;;;;;;;;;;;;;;;;;4936937;29;19918;-84
2022/08/07 00:28:30;;;;;;;;;;;;;;;;;;4931750;29;19935;-84
2022/08/07 00:30:55;;;;;;;;;;;;;;;;;;4930281;29;19962;-84
2022/08/07 00:33:25;;;;;;;;;;;;;;;;;;4933721;29;19969;-84
2022/08/07 00:35:50;;;;;;;;;;;;;;;;;;4934645;28;19923;-85
2022/08/07 00:38:15;;;;;;;;;;;;;;;;;;4929936;29;19919;-84
2022/08/07 00:40:40;;;;;;;;;;;;;;;;;;4932318;29;19918;-84
2022/08/07 00:43:05;;;;;;;;;;;;;;;;;;4928141;29;19922;-84
2022/08/07 00:45:31;;;;;;;;;;;;;;;;;;4928317;29;20031;-85
2022/08/07 00:47:56;;;;;;;;;;;;;;;;;;4931633;29;19919;-84
2022/08/07 00:50:21;;;;;;;;;;;;;;;;;;4935579;28;19950;-84
2022/08/07 00:52:46;;;;;;;;;;;;;;;;;;4931255;29;19914;-83
2022/08/07 00:55:11;;;;;;;;;;;;;;;;;;4938495;28;19915;-85
2022/08/07 00:57:36;;;;;;;;;;;;;;;;;;4938300;28;19914;-83
2022/08/07 01:00:02;;;;;;;;;;;;;;;;;;4928204;29;20124;-84
2022/08/07 01:02:27;;;;;;;;;;;;;;;;;;4933615;29;19919;-84
2022/08/07 01:04:52;;;;;;;;;;;;;;;;;;4934243;29;20411;-84
2022/08/07 01:07:17;;;;;;;;;;;;;;;;;;4931796;29;20495;-83
2022/08/07 01:09:42;;;;;;;;;;;;;;;;;;4924700;29;19962;-84
2022/08/07 01:12:08;;;;;;;;;;;;;;;;;;4929046;29;20377;-84
2022/08/07 01:14:33;;;;;;;;;;;;;;;;;;4933107;29;19915;-85
2022/08/07 01:16:58;;;;;;;;;;;;;;;;;;4949431;28;19921;-84
2022/08/07 01:19:24;;;;;;;;;;;;;;;;;;4929249;29;19926;-84
2022/08/07 01:21:49;;;;;;;;;;;;;;;;;;4935662;29;19915;-84
2022/08/07 01:24:14;;;;;;;;;;;;;;;;;;4929159;29;19921;-85
2022/08/07 01:26:39;;;;;;;;;;;;;;;;;;4928675;29;19915;-84
2022/08/07 01:29:04;;;;;;;;;;;;;;;;;;4929130;29;19961;-86
2022/08/07 01:31:32;;;;;;;;;;;;;;;;;;4930842;29;20365;-85
2022/08/07 01:33:58;;;;;;;;;;;;;;;;;;4933406;29;19919;-84
2022/08/07 01:36:23;;;;;;;;;;;;;;;;;;4938056;29;19962;-84
2022/08/07 01:38:48;;;;;;;;;;;;;;;;;;4932832;29;19915;-84
2022/08/07 01:41:13;;;;;;;;;;;;;;;;;;4935089;28;19915;-84
2022/08/07 01:43:38;;;;;;;;;;;;;;;;;;4929205;29;19998;-83
2022/08/07 01:46:03;;;;;;;;;;;;;;;;;;4927292;29;19916;-84
2022/08/07 01:48:31;;;;;;;;;;;;;;;;;;4928018;29;20013;-84
2022/08/07 01:50:56;;;;;;;;;;;;;;;;;;4930127;29;19915;-84
2022/08/07 01:53:21;;;;;;;;;;;;;;;;;;4924179;29;21649;-84
2022/08/07 01:55:46;;;;;;;;;;;;;;;;;;4929586;29;20010;-84
2022/08/07 01:58:12;;;;;;;;;;;;;;;;;;4928107;29;19951;-85
2022/08/07 02:00:38;;;;;;;;;;;;;;;;;;4927961;29;19923;-84
2022/08/07 02:03:03;;;;;;;;;;;;;;;;;;4927643;29;19930;-86
2022/08/07 02:05:29;;;;;;;;;;;;;;;;;;4937810;28;19923;-85
2022/08/07 02:07:54;;;;;;;;;;;;;;;;;;4930377;29;19933;-84
2022/08/07 02:10:19;;;;;;;;;;;;;;;;;;4929468;28;19915;-84
2022/08/07 02:12:44;;;;;;;;;;;;;;;;;;4929069;28;20321;-85
2022/08/07 02:15:09;;;;;;;;;;;;;;;;;;4929076;29;19916;-84
2022/08/07 02:17:34;;;;;;;;;;;;;;;;;;4933107;29;19918;-84
2022/08/07 02:20:00;;;;;;;;;;;;;;;;;;4932215;29;19925;-84
2022/08/07 02:22:25;;;;;;;;;;;;;;;;;;4935906;29;19927;-83
2022/08/07 02:24:50;;;;;;;;;;;;;;;;;;4928640;29;19922;-85
2022/08/07 02:27:15;;;;;;;;;;;;;;;;;;4927873;29;19915;-84
2022/08/07 02:29:41;;;;;;;;;;;;;;;;;;4924824;29;20359;-84
2022/08/07 02:32:06;;;;;;;;;;;;;;;;;;4928793;28;19970;-85
2022/08/07 02:34:31;;;;;;;;;;;;;;;;;;4932536;29;19914;-84
2022/08/07 02:36:56;;;;;;;;;;;;;;;;;;4937719;29;20325;-84
2022/08/07 02:39:21;;;;;;;;;;;;;;;;;;4925665;29;19915;-84
2022/08/07 02:41:47;;;;;;;;;;;;;;;;;;4930766;28;19962;-84
2022/08/07 02:44:12;;;;;;;;;;;;;;;;;;4925776;29;19919;-83
2022/08/07 02:46:38;;;;;;;;;;;;;;;;;;4930121;29;19919;-84
2022/08/07 02:49:04;;;;;;;;;;;;;;;;;;4932272;29;19969;-85
2022/08/07 02:51:29;;;;;;;;;;;;;;;;;;4928344;29;19915;-84
2022/08/07 02:53:54;;;;;;;;;;;;;;;;;;4927306;29;19982;-84
2022/08/07 02:56:20;;;;;;;;;;;;;;;;;;4931668;28;19915;-85
2022/08/07 02:58:45;;;;;;;;;;;;;;;;;;4933795;29;19923;-84
2022/08/07 03:01:10;;;;;;;;;;;;;;;;;;4931988;28;20289;-84
2022/08/07 03:03:35;;;;;;;;;;;;;;;;;;4927365;29;19922;-84
2022/08/07 03:06:01;;;;;;;;;;;;;;;;;;4933001;29;19927;-83
2022/08/07 03:08:26;;;;;;;;;;;;;;;;;;4932470;29;20022;-84
2022/08/07 03:10:51;;;;;;;;;;;;;;;;;;4933442;29;19915;-84
2022/08/07 03:13:16;;;;;;;;;;;;;;;;;;4931667;29;19954;-83
2022/08/07 03:15:41;;;;;;;;;;;;;;;;;;4928001;29;19923;-84
2022/08/07 03:18:06;;;;;;;;;;;;;;;;;;4930731;29;19915;-86
2022/08/07 03:20:32;;;;;;;;;;;;;;;;;;4931188;29;19926;-85
2022/08/07 03:22:57;;;;;;;;;;;;;;;;;;4931712;29;19934;-85
2022/08/07 03:25:22;;;;;;;;;;;;;;;;;;4932068;29;20001;-84
2022/08/07 03:27:47;;;;;;;;;;;;;;;;;;4925782;29;19915;-84
2022/08/07 03:30:13;;;;;;;;;;;;;;;;;;4927232;29;19978;-84
2022/08/07 03:32:38;;;;;;;;;;;;;;;;;;4936437;29;19954;-83
2022/08/07 03:35:03;;;;;;;;;;;;;;;;;;4933907;28;19911;-84
2022/08/07 03:37:28;;;;;;;;;;;;;;;;;;4927176;28;19915;-84
2022/08/07 03:39:53;;;;;;;;;;;;;;;;;;4924288;28;19915;-84
2022/08/07 03:42:18;;;;;;;;;;;;;;;;;;4930257;29;19970;-83
2022/08/07 03:44:43;;;;;;;;;;;;;;;;;;4927166;28;19954;-84
2022/08/07 03:47:09;;;;;;;;;;;;;;;;;;4931962;28;20051;-84
2022/08/07 03:49:34;;;;;;;;;;;;;;;;;;4931595;29;19950;-84
2022/08/07 03:51:59;;;;;;;;;;;;;;;;;;4926106;29;20377;-84
2022/08/07 03:54:24;;;;;;;;;;;;;;;;;;4926197;29;19919;-86
2022/08/07 03:56:49;;;;;;;;;;;;;;;;;;4927963;29;20408;-84
2022/08/07 03:59:15;;;;;;;;;;;;;;;;;;4932468;29;19915;-84
2022/08/07 04:01:40;;;;;;;;;;;;;;;;;;4929692;29;19928;-84
2022/08/07 04:04:05;;;;;;;;;;;;;;;;;;4925865;29;19915;-84
2022/08/07 04:06:32;;;;;;;;;;;;;;;;;;4926733;29;19915;-84
2022/08/07 04:08:58;;;;;;;;;;;;;;;;;;4932189;29;19990;-84
2022/08/07 04:11:23;;;;;;;;;;;;;;;;;;4928268;29;20432;-83
2022/08/07 04:13:48;;;;;;;;;;;;;;;;;;4932344;28;20010;-83
2022/08/07 04:16:13;;;;;;;;;;;;;;;;;;4924772;29;20373;-83
2022/08/07 04:18:38;;;;;;;;;;;;;;;;;;4930039;29;19998;-83
2022/08/07 04:21:03;;;;;;;;;;;;;;;;;;4926790;29;20354;-84
2022/08/07 04:23:28;;;;;;;;;;;;;;;;;;4931851;29;20089;-85
2022/08/07 04:25:54;;;;;;;;;;;;;;;;;;4931341;29;19961;-83
2022/08/07 04:28:19;;;;;;;;;;;;;;;;;;4927623;28;19978;-83
2022/08/07 04:30:44;;;;;;;;;;;;;;;;;;4927700;29;20726;-83
2022/08/07 04:33:09;;;;;;;;;;;;;;;;;;4931092;29;19914;-84
2022/08/07 04:35:34;;;;;;;;;;;;;;;;;;4936858;29;19925;-83
2022/08/07 04:37:59;;;;;;;;;;;;;;;;;;4933477;28;19958;-84
2022/08/07 04:40:25;;;;;;;;;;;;;;;;;;4930183;29;20881;-84
2022/08/07 04:42:50;;;;;;;;;;;;;;;;;;4928154;29;19915;-83
2022/08/07 04:45:16;;;;;;;;;;;;;;;;;;4937193;29;20399;-83
2022/08/07 04:47:41;;;;;;;;;;;;;;;;;;4931535;29;19959;-84
2022/08/07 04:50:06;;;;;;;;;;;;;;;;;;4932499;29;19942;-84
2022/08/07 04:52:31;;;;;;;;;;;;;;;;;;4929217;29;19919;-84
2022/08/07 04:54:57;;;;;;;;;;;;;;;;;;4932136;29;19915;-84
2022/08/07 04:57:22;;;;;;;;;;;;;;;;;;4935263;29;19911;-83
2022/08/07 04:59:47;;;;;;;;;;;;;;;;;;4929106;29;19923;-84
2022/08/07 05:02:12;;;;;;;;;;;;;;;;;;4941949;29;19922;-84
2022/08/07 05:04:37;;;;;;;;;;;;;;;;;;4937017;29;19915;-84
2022/08/07 05:07:02;;;;;;;;;;;;;;;;;;4935375;29;19922;-84
2022/08/07 05:09:28;;;;;;;;;;;;;;;;;;4929118;29;19919;-84
2022/08/07 05:11:53;;;;;;;;;;;;;;;;;;4933694;29;20350;-84
2022/08/07 05:14:18;;;;;;;;;;;;;;;;;;4932850;29;19997;-84
2022/08/07 05:16:46;;;;;;;;;;;;;;;;;;4928796;28;19918;-84
2022/08/07 05:19:11;;;;;;;;;;;;;;;;;;4928453;29;19918;-84
2022/08/07 05:21:36;;;;;;;;;;;;;;;;;;4928911;29;19915;-84
2022/08/07 05:24:02;;;;;;;;;;;;;;;;;;4929261;29;20465;-85
2022/08/07 05:26:27;;;;;;;;;;;;;;;;;;4930200;29;19921;-84
2022/08/07 05:28:52;;;;;;;;;;;;;;;;;;4931149;28;20330;-84
2022/08/07 05:31:17;;;;;;;;;;;;;;;;;;4946099;28;19922;-85
2022/08/07 05:33:42;;;;;;;;;;;;;;;;;;4930344;29;20011;-84
2022/08/07 05:36:08;;;;;;;;;;;;;;;;;;4933491;28;19914;-84
2022/08/07 05:38:33;;;;;;;;;;;;;;;;;;4932042;29;19915;-85
2022/08/07 05:40:58;;;;;;;;;;;;;;;;;;4930211;29;19914;-84
2022/08/07 05:43:23;;;;;;;;;;;;;;;;;;4929068;29;19915;-84
2022/08/07 05:45:48;;;;;;;;;;;;;;;;;;4932839;29;20013;-84
2022/08/07 05:48:13;;;;;;;;;;;;;;;;;;4932041;29;19974;-84
2022/08/07 05:50:39;;;;;;;;;;;;;;;;;;4930376;29;20017;-85
2022/08/07 05:53:04;;;;;;;;;;;;;;;;;;4929467;29;19923;-85
2022/08/07 05:55:29;;;;;;;;;;;;;;;;;;4930962;28;20607;-85
2022/08/07 05:57:54;;;;;;;;;;;;;;;;;;4932095;29;19915;-85
2022/08/07 06:00:19;;;;;;;;;;;;;;;;;;4931508;29;20436;-85
2022/08/07 06:02:44;;;;;;;;;;;;;;;;;;4930403;29;19922;-85
2022/08/07 06:05:09;;;;;;;;;;;;;;;;;;4929681;28;20440;-84
2022/08/07 06:07:35;;;;;;;;;;;;;;;;;;4924631;29;19919;-85
2022/08/07 06:10:00;;;;;;;;;;;;;;;;;;4934263;29;21661;-85
2022/08/07 06:12:25;;;;;;;;;;;;;;;;;;4933149;28;19926;-85
2022/08/07 06:14:50;;;;;;;;;;;;;;;;;;4928900;29;19922;-84
2022/08/07 06:17:15;;;;;;;;;;;;;;;;;;4935178;29;19998;-85
2022/08/07 06:19:41;;;;;;;;;;;;;;;;;;4928907;29;19923;-85
2022/08/07 06:22:06;;;;;;;;;;;;;;;;;;4934300;29;20010;-85
2022/08/07 06:24:31;;;;;;;;;;;;;;;;;;4930933;29;20325;-85
2022/08/07 06:26:56;;;;;;;;;;;;;;;;;;4930441;29;19915;-85
2022/08/07 06:29:21;;;;;;;;;;;;;;;;;;4933680;29;19918;-85
2022/08/07 06:31:46;;;;;;;;;;;;;;;;;;4935763;28;19954;-85
2022/08/07 06:34:11;;;;;;;;;;;;;;;;;;4927956;29;20377;-86
2022/08/07 06:36:37;;;;;;;;;;;;;;;;;;4933402;29;19987;-85
2022/08/07 06:39:02;;;;;;;;;;;;;;;;;;4930255;28;19977;-85
2022/08/07 06:41:27;;;;;;;;;;;;;;;;;;4933529;29;19922;-84
2022/08/07 06:43:52;;;;;;;;;;;;;;;;;;4932623;29;19997;-85
2022/08/07 06:46:17;;;;;;;;;;;;;;;;;;4921777;29;20437;-86
2022/08/07 06:48:43;;;;;;;;;;;;;;;;;;4930631;29;19918;-85
2022/08/07 06:51:08;;;;;;;;;;;;;;;;;;4928856;29;19926;-86
2022/08/07 06:53:33;;;;;;;;;;;;;;;;;;4926321;29;19915;-86
2022/08/07 06:55:58;;;;;;;;;;;;;;;;;;4931086;29;20409;-84
2022/08/07 06:58:23;;;;;;;;;;;;;;;;;;4930194;28;19914;-85
2022/08/07 07:00:48;;;;;;;;;;;;;;;;;;4926365;29;19945;-85
2022/08/07 07:03:14;;;;;;;;;;;;;;;;;;4927700;28;20424;-85
2022/08/07 07:05:39;;;;;;;;;;;;;;;;;;4927453;29;19915;-85
2022/08/07 07:08:04;;;;;;;;;;;;;;;;;;4933487;28;20293;-85
2022/08/07 07:10:29;;;;;;;;;;;;;;;;;;4930431;29;19919;-85
2022/08/07 07:12:55;;;;;;;;;;;;;;;;;;4923631;29;19919;-84
2022/08/07 07:15:20;;;;;;;;;;;;;;;;;;4922470;28;19950;-85
2022/08/07 07:17:45;;;;;;;;;;;;;;;;;;4929969;29;20005;-84
2022/08/07 07:20:10;;;;;;;;;;;;;;;;;;4929018;29;20374;-85
2022/08/07 07:22:36;;;;;;;;;;;;;;;;;;4926040;29;19923;-85
2022/08/07 07:25:01;;;;;;;;;;;;;;;;;;4932025;29;19929;-85
2022/08/07 07:27:26;;;;;;;;;;;;;;;;;;4934162;29;19919;-85
2022/08/07 07:29:51;;;;;;;;;;;;;;;;;;4944791;28;19922;-85
2022/08/07 07:32:16;;;;;;;;;;;;;;;;;;4933868;29;19933;-86
2022/08/07 07:34:41;;;;;;;;;;;;;;;;;;4929980;29;20455;-85
2022/08/07 07:37:07;;;;;;;;;;;;;;;;;;4934965;28;20001;-85
2022/08/07 07:39:32;;;;;;;;;;;;;;;;;;4921484;29;20322;-86
2022/08/07 07:41:57;;;;;;;;;;;;;;;;;;4930950;29;20490;-85
2022/08/07 07:44:22;;;;;;;;;;;;;;;;;;4923996;29;19919;-85
2022/08/07 07:46:47;;;;;;;;;;;;;;;;;;4926522;28;19919;-85
2022/08/07 07:49:12;;;;;;;;;;;;;;;;;;4927871;28;19933;-86
2022/08/07 07:51:38;;;;;;;;;;;;;;;;;;4926308;29;20496;-85
2022/08/07 07:54:03;;;;;;;;;;;;;;;;;;4928094;29;19915;-85
2022/08/07 07:56:28;;;;;;;;;;;;;;;;;;4935153;29;19915;-85
2022/08/07 07:58:53;;;;;;;;;;;;;;;;;;4926550;28;19915;-85
2022/08/07 08:01:18;;;;;;;;;;;;;;;;;;4928488;29;19925;-85
2022/08/07 08:03:43;;;;;;;;;;;;;;;;;;4927954;28;19922;-85
2022/08/07 08:06:09;;;;;;;;;;;;;;;;;;4931282;29;19915;-86
2022/08/07 08:08:34;;;;;;;;;;;;;;;;;;4934045;29;20005;-85
2022/08/07 08:10:59;;;;;;;;;;;;;;;;;;4928235;29;19950;-85
2022/08/07 08:13:24;;;;;;;;;;;;;;;;;;4934341;29;20360;-85
2022/08/07 08:15:50;;;;;;;;;;;;;;;;;;4929314;29;19919;-86
2022/08/07 08:18:15;;;;;;;;;;;;;;;;;;4927960;29;19929;-86
2022/08/07 08:20:40;;;;;;;;;;;;;;;;;;4934698;29;19923;-84
2022/08/07 08:28:33;;;;;;;;;;;;;;;;;;4932407;29;19965;-85
2022/08/07 08:30:58;;;;;;;;;;;;;;;;;;4931169;29;20373;-85
2022/08/07 08:33:23;;;;;;;;;;;;;;;;;;4922746;29;20113;-86
2022/08/07 08:35:49;;;;;;;;;;;;;;;;;;4923534;28;19921;-85
2022/08/07 08:38:14;;;;;;;;;;;;;;;;;;4934319;29;19921;-86
2022/08/07 08:40:42;;;;;;;;;;;;;;;;;;4934225;29;19921;-85
2022/08/07 08:43:07;;;;;;;;;;;;;;;;;;4944154;28;19918;-85
2022/08/07 08:45:32;;;;;;;;;;;;;;;;;;4929976;29;19962;-86
2022/08/07 08:47:57;;;;;;;;;;;;;;;;;;4928641;29;19926;-86
2022/08/07 08:50:23;;;;;;;;;;;;;;;;;;4936931;29;19915;-86
2022/08/07 08:52:48;;;;;;;;;;;;;;;;;;4930287;29;20001;-85
2022/08/07 08:55:13;;;;;;;;;;;;;;;;;;4934512;29;19922;-86
2022/08/07 08:57:39;;;;;;;;;;;;;;;;;;4935420;29;19977;-84
2022/08/07 09:00:04;;;;;;;;;;;;;;;;;;4936593;29;20134;-85
2022/08/07 09:02:29;;;;;;;;;;;;;;;;;;4938269;29;19922;-84
2022/08/07 09:04:54;;;;;;;;;;;;;;;;;;4934824;29;20143;-85
2022/08/07 09:07:19;;;;;;;;;;;;;;;;;;4934013;29;19938;-84
2022/08/07 09:09:46;;;;;;;;;;;;;;;;;;4942228;28;19962;-84
2022/08/07 09:12:12;;;;;;;;;;;;;;;;;;4934943;29;20274;-84
2022/08/07 09:14:37;;;;;;;;;;;;;;;;;;4937833;29;19998;-85
2022/08/07 09:17:02;;;;;;;;;;;;;;;;;;4935253;29;19927;-86
2022/08/07 09:19:27;;;;;;;;;;;;;;;;;;4935295;29;19954;-83
2022/08/07 09:21:52;;;;;;;;;;;;;;;;;;4935695;29;19938;-84
2022/08/07 09:24:17;;;;;;;;;;;;;;;;;;4937091;29;19923;-84
2022/08/07 09:26:44;;;;;;;;;;;;;;;;;;4928588;29;20159;-84
2022/08/07 09:29:09;;;;;;;;;;;;;;;;;;4939490;28;19942;-84
2022/08/07 09:31:34;;;;;;;;;;;;;;;;;;4938709;29;20302;-85
2022/08/07 09:34:00;;;;;;;;;;;;;;;;;;4934042;29;19915;-85
2022/08/07 09:36:25;;;;;;;;;;;;;;;;;;4931396;29;19929;-85
2022/08/07 09:38:50;;;;;;;;;;;;;;;;;;4942855;29;20006;-84
2022/08/07 09:41:15;;;;;;;;;;;;;;;;;;4934391;29;20393;-85
2022/08/07 09:43:40;;;;;;;;;;;;;;;;;;4937510;29;19930;-84
2022/08/07 09:46:06;;;;;;;;;;;;;;;;;;4941182;29;19919;-85
2022/08/07 09:48:31;;;;;;;;;;;;;;;;;;4938559;29;19934;-84
2022/08/07 09:50:56;;;;;;;;;;;;;;;;;;4940315;29;19914;-86
2022/08/07 09:53:22;;;;;;;;;;;;;;;;;;4932785;29;19961;-85
2022/08/07 09:55:47;;;;;;;;;;;;;;;;;;4934261;29;19915;-85
2022/08/07 09:58:12;;;;;;;;;;;;;;;;;;4929913;29;20044;-84
2022/08/07 10:00:37;;;;;;;;;;;;;;;;;;4938890;28;19930;-86
2022/08/07 10:03:03;;;;;;;;;;;;;;;;;;4941524;29;19966;-85
2022/08/07 10:05:30;;;;;;;;;;;;;;;;;;4936285;28;19921;-85
2022/08/07 10:07:55;;;;;;;;;;;;;;;;;;4935502;29;19926;-86
2022/08/07 10:10:20;;;;;;;;;;;;;;;;;;4933005;29;19915;-84
2022/08/07 10:12:45;;;;;;;;;;;;;;;;;;4927489;29;19919;-85
2022/08/07 10:15:11;;;;;;;;;;;;;;;;;;4928661;29;20299;-85
2022/08/07 10:54:32;;;;;;;;;;;;;;;;;;4887060;29;20090;-85
2022/08/07 10:59:56;;;;;;;;;;;;;;;;;;4894768;29;19952;-84
2022/08/07 11:35:56;;;;;;;;;;;;;;;;;;4908348;29;19926;-84
2022/08/07 11:38:21;;;;;;;;;;;;;;;;;;4915239;29;19918;-85
2022/08/07 11:40:47;;;;;;;;;;;;;;;;;;4948590;28;19918;-85
2022/08/07 11:43:12;;;;;;;;;;;;;;;;;;4952553;28;19923;-85
2022/08/07 11:45:37;;;;;;;;;;;;;;;;;;4953244;28;19922;-84
2022/08/07 11:48:02;;;;;;;;;;;;;;;;;;4953425;28;20041;-85
2022/08/07 11:50:28;;;;;;;;;;;;;;;;;;4954799;29;19930;-84
2022/08/07 11:52:53;;;;;;;;;;;;;;;;;;4955263;28;20390;-86
2022/08/07 11:55:18;;;;;;;;;;;;;;;;;;4955615;28;19925;-85
2022/08/07 11:57:43;;;;;;;;;;;;;;;;;;4955265;28;19923;-84
2022/08/07 12:00:11;;;;;;;;;;;;;;;;;;4956574;28;19926;-84
2022/08/07 12:02:37;;;;;;;;;;;;;;;;;;4956140;28;19921;-84
2022/08/07 12:05:02;;;;;;;;;;;;;;;;;;4954807;28;19994;-85
2022/08/07 12:07:27;;;;;;;;;;;;;;;;;;4951018;28;20450;-85
2022/08/07 12:09:54;;;;;;;;;;;;;;;;;;4956840;28;19919;-85
2022/08/07 12:12:20;;;;;;;;;;;;;;;;;;4952233;28;19930;-85
2022/08/07 12:14:45;;;;;;;;;;;;;;;;;;4954552;29;19918;-85
2022/08/07 12:17:10;;;;;;;;;;;;;;;;;;4969455;28;19914;-84
2022/08/07 12:19:35;;;;;;;;;;;;;;;;;;4953741;28;19926;-84
2022/08/07 12:22:00;;;;;;;;;;;;;;;;;;4952546;28;20025;-84
2022/08/07 12:24:25;;;;;;;;;;;;;;;;;;4955124;29;19918;-85
2022/08/07 12:26:51;;;;;;;;;;;;;;;;;;4951783;28;19942;-85
2022/08/07 12:29:16;;;;;;;;;;;;;;;;;;4951670;28;19922;-85
2022/08/07 12:31:41;;;;;;;;;;;;;;;;;;4956996;28;19920;-86
2022/08/07 12:34:06;;;;;;;;;;;;;;;;;;4957507;28;19950;-84
2022/08/07 12:36:31;;;;;;;;;;;;;;;;;;4954285;28;19922;-84
2022/08/07 12:38:56;;;;;;;;;;;;;;;;;;4950540;28;19929;-85
2022/08/07 12:41:22;;;;;;;;;;;;;;;;;;4950178;28;19923;-84
2022/08/07 12:43:47;;;;;;;;;;;;;;;;;;4955045;28;19918;-84
2022/08/07 12:46:12;;;;;;;;;;;;;;;;;;4970392;28;19961;-85
2022/08/07 12:48:37;;;;;;;;;;;;;;;;;;4947372;28;19922;-85
2022/08/07 12:51:02;;;;;;;;;;;;;;;;;;4951225;28;20024;-84
2022/08/07 12:53:27;;;;;;;;;;;;;;;;;;4953555;28;19915;-84
2022/08/07 12:55:53;;;;;;;;;;;;;;;;;;4955099;28;19921;-85
2022/08/07 12:58:18;;;;;;;;;;;;;;;;;;4952293;28;19915;-84
2022/08/07 13:00:43;;;;;;;;;;;;;;;;;;4953394;28;19919;-85
2022/08/07 13:03:08;;;;;;;;;;;;;;;;;;4949988;28;19933;-84
2022/08/07 13:05:33;;;;;;;;;;;;;;;;;;4950831;28;19928;-84
2022/08/07 13:08:00;;;;;;;;;;;;;;;;;;4949630;28;20564;-84
2022/08/07 13:10:25;;;;;;;;;;;;;;;;;;4953067;28;20459;-84
2022/08/07 13:12:50;;;;;;;;;;;;;;;;;;4943978;28;19918;-85
2022/08/07 13:15:16;;;;;;;;;;;;;;;;;;4948848;29;19922;-85
2022/08/07 13:17:42;;;;;;;;;;;;;;;;;;4950705;28;19934;-85
2022/08/07 13:20:07;;;;;;;;;;;;;;;;;;4964305;28;20063;-84
2022/08/07 13:22:32;;;;;;;;;;;;;;;;;;4966315;28;19950;-83
2022/08/07 13:24:58;;;;;;;;;;;;;;;;;;4952258;28;19973;-84
2022/08/07 13:27:23;;;;;;;;;;;;;;;;;;4950896;28;19918;-85
2022/08/07 13:29:49;;;;;;;;;;;;;;;;;;4948845;28;19918;-85
2022/08/07 13:32:14;;;;;;;;;;;;;;;;;;4949887;29;19915;-85
2022/08/07 13:34:40;;;;;;;;;;;;;;;;;;4947403;28;19922;-85
2022/08/07 13:37:05;;;;;;;;;;;;;;;;;;4948424;28;19961;-84
2022/08/07 13:39:30;;;;;;;;;;;;;;;;;;4963414;28;19934;-84
2022/08/07 13:41:55;;;;;;;;;;;;;;;;;;4949930;28;19926;-84
2022/08/07 13:44:20;;;;;;;;;;;;;;;;;;4950638;28;19938;-84
2022/08/07 13:46:46;;;;;;;;;;;;;;;;;;4950404;28;19918;-84
2022/08/07 13:49:11;;;;;;;;;;;;;;;;;;4949239;28;20497;-84
2022/08/07 13:51:38;;;;;;;;;;;;;;;;;;4948938;28;19934;-85
2022/08/07 13:54:03;;;;;;;;;;;;;;;;;;4952280;29;20049;-84
2022/08/07 13:56:31;;;;;;;;;;;;;;;;;;4966975;28;20016;-86
2022/08/07 13:59:18;;;;;;;;;;;;;;;;;;;;;
2022/08/07 14:10:10;;;;;;;;;;;;;;;;;;4924420;29;19923;-85
2022/08/07 14:27:07;;;;;;;;;;;;;;;;;;4845486;29;19920;-84
2022/08/07 15:26:08;;;;;;;;;;;;;;;;;;;;;
2022/08/07 15:37:08;;;;;;;;;;;;;;;;;;4974144;23;19977;-84
2022/08/07 15:53:33;;;;;;;;;;;;;;;;;;;;;
2022/08/07 15:56:09;;;;;;;;;;;;;;;;;;4903817;28;19924;-84
2022/08/07 16:01:32;;;;;;;;;;;;;;;;;;4944617;28;19917;-84
2022/08/07 16:06:51;;;;;;;;;;;;;;;;;;4962933;28;19921;-84
2022/08/07 16:17:54;;;;;;;;;;;;;;;;;;;;;
2022/08/07 17:04:35;;;;;;;;;;;;;;;;;;4989660;28;19930;-83
2022/08/07 17:07:06;;;;;;;;;;;;;;;;;;4993957;28;19918;-83
2022/08/07 17:09:34;;;;;;;;;;;;;;;;;;4992812;28;19926;-84
2022/08/07 17:11:59;;;;;;;;;;;;;;;;;;4992468;28;19913;-84
2022/08/07 17:14:24;;;;;;;;;;;;;;;;;;4989507;28;20397;-83
2022/08/07 17:16:50;;;;;;;;;;;;;;;;;;4988159;28;19971;-83
2022/08/07 17:19:15;;;;;;;;;;;;;;;;;;4983737;28;19986;-84
2022/08/07 17:21:43;;;;;;;;;;;;;;;;;;4991739;28;19918;-83
2022/08/07 17:24:08;;;;;;;;;;;;;;;;;;4986738;28;19921;-83
2022/08/07 17:26:36;;;;;;;;;;;;;;;;;;4992214;28;19913;-83
2022/08/07 17:29:01;;;;;;;;;;;;;;;;;;4987947;28;19925;-82
2022/08/07 17:31:29;;;;;;;;;;;;;;;;;;4987906;28;19925;-82
2022/08/07 17:33:59;;;;;;;;;;;;;;;;;;4985748;28;20415;-84
2022/08/07 17:36:27;;;;;;;;;;;;;;;;;;4988953;28;20290;-84
2022/08/07 17:38:53;;;;;;;;;;;;;;;;;;4990338;28;19921;-83
2022/08/07 17:41:19;;;;;;;;;;;;;;;;;;4988227;28;20002;-83
2022/08/07 17:43:44;;;;;;;;;;;;;;;;;;4986941;28;19933;-83
2022/08/07 17:46:16;;;;;;;;;;;;;;;;;;4984727;28;19914;-83
2022/08/07 17:48:41;;;;;;;;;;;;;;;;;;4985363;28;19922;-83
2022/08/07 17:51:07;;;;;;;;;;;;;;;;;;4981340;28;19925;-83
2022/08/07 17:53:32;;;;;;;;;;;;;;;;;;4978436;28;20404;-83
2022/08/07 17:55:57;;;;;;;;;;;;;;;;;;4987020;28;19918;-83
2022/08/07 17:58:22;;;;;;;;;;;;;;;;;;4986444;28;19913;-82
2022/08/07 18:00:48;;;;;;;;;;;;;;;;;;4983445;28;19918;-83
2022/08/07 18:03:14;;;;;;;;;;;;;;;;;;4985826;28;19921;-82
2022/08/07 18:05:39;;;;;;;;;;;;;;;;;;4986018;28;19925;-83
2022/08/07 18:08:04;;;;;;;;;;;;;;;;;;4986273;28;20322;-82
2022/08/07 18:10:29;;;;;;;;;;;;;;;;;;4990098;28;19914;-82
2022/08/07 18:12:54;;;;;;;;;;;;;;;;;;4984826;28;19914;-82
2022/08/07 18:15:21;;;;;;;;;;;;;;;;;;4987659;28;20440;-83
2022/08/07 18:17:50;;;;;;;;;;;;;;;;;;4991641;28;19968;-82
2022/08/07 18:20:18;;;;;;;;;;;;;;;;;;4994225;28;19914;-84
2022/08/07 18:22:46;;;;;;;;;;;;;;;;;;4985672;28;19914;-83
2022/08/07 18:25:14;;;;;;;;;;;;;;;;;;4986039;28;19924;-84
2022/08/07 18:27:43;;;;;;;;;;;;;;;;;;4979748;28;19913;-84
2022/08/07 18:30:08;;;;;;;;;;;;;;;;;;4989295;28;20414;-85
2022/08/07 18:32:34;;;;;;;;;;;;;;;;;;4986647;28;19937;-84
2022/08/07 18:34:59;;;;;;;;;;;;;;;;;;4985162;28;19918;-83
2022/08/07 18:37:31;;;;;;;;;;;;;;;;;;4994638;28;20008;-84
2022/08/07 18:39:56;;;;;;;;;;;;;;;;;;4987468;28;20402;-84
2022/08/07 18:42:21;;;;;;;;;;;;;;;;;;4982022;28;20040;-84
2022/08/07 18:44:46;;;;;;;;;;;;;;;;;;4989070;28;19913;-84
2022/08/07 18:47:11;;;;;;;;;;;;;;;;;;4986244;28;19913;-84
2022/08/07 18:49:37;;;;;;;;;;;;;;;;;;4986277;28;20513;-85
2022/08/07 18:52:09;;;;;;;;;;;;;;;;;;4982193;28;19961;-84
2022/08/07 18:54:36;;;;;;;;;;;;;;;;;;4983677;28;19921;-84
2022/08/07 18:57:02;;;;;;;;;;;;;;;;;;4990329;28;19921;-84
2022/08/07 18:59:29;;;;;;;;;;;;;;;;;;4989451;28;19914;-83
2022/08/07 19:01:54;;;;;;;;;;;;;;;;;;4990080;28;19949;-83
2022/08/07 19:04:20;;;;;;;;;;;;;;;;;;4987499;28;19983;-82
2022/08/07 19:06:48;;;;;;;;;;;;;;;;;;4984723;28;19917;-82
2022/08/07 19:09:13;;;;;;;;;;;;;;;;;;4982549;28;19968;-82
2022/08/07 19:11:38;;;;;;;;;;;;;;;;;;4986928;28;19949;-82
2022/08/07 19:14:04;;;;;;;;;;;;;;;;;;4983688;28;20012;-83
2022/08/07 19:16:32;;;;;;;;;;;;;;;;;;4982963;28;19922;-81
2022/08/07 19:18:57;;;;;;;;;;;;;;;;;;4983875;28;19918;-82
2022/08/07 19:21:23;;;;;;;;;;;;;;;;;;4988112;28;20287;-82
2022/08/07 19:23:48;;;;;;;;;;;;;;;;;;4993459;28;19920;-82
2022/08/07 19:26:16;;;;;;;;;;;;;;;;;;4983542;28;20028;-83
2022/08/07 19:28:41;;;;;;;;;;;;;;;;;;4985926;28;19949;-82
2022/08/07 19:31:06;;;;;;;;;;;;;;;;;;4983272;28;21565;-82
2022/08/07 19:33:32;;;;;;;;;;;;;;;;;;4988426;28;19988;-82
2022/08/07 19:35:57;;;;;;;;;;;;;;;;;;4987906;28;19922;-82
2022/08/07 19:38:22;;;;;;;;;;;;;;;;;;4998792;28;20658;-82
2022/08/07 19:40:47;;;;;;;;;;;;;;;;;;4993079;28;19940;-81
2022/08/07 19:43:12;;;;;;;;;;;;;;;;;;4986128;28;20613;-82
2022/08/07 19:45:40;;;;;;;;;;;;;;;;;;4986762;28;19920;-82
2022/08/07 19:48:05;;;;;;;;;;;;;;;;;;4982678;28;19917;-82
2022/08/07 19:50:31;;;;;;;;;;;;;;;;;;4984266;28;20384;-82
2022/08/07 19:52:56;;;;;;;;;;;;;;;;;;4986679;28;19914;-81
2022/08/07 19:55:24;;;;;;;;;;;;;;;;;;4987715;28;20103;-82
2022/08/07 19:57:51;;;;;;;;;;;;;;;;;;4986363;28;19921;-82
2022/08/07 20:00:16;;;;;;;;;;;;;;;;;;4991008;28;19922;-81
2022/08/07 20:02:43;;;;;;;;;;;;;;;;;;4998410;28;19989;-81
2022/08/07 20:05:08;;;;;;;;;;;;;;;;;;4996751;28;20501;-81
2022/08/07 20:07:34;;;;;;;;;;;;;;;;;;4990988;28;19922;-81
2022/08/07 20:09:59;;;;;;;;;;;;;;;;;;4991954;28;19922;-81
2022/08/07 20:12:24;;;;;;;;;;;;;;;;;;4990678;28;19937;-81
2022/08/07 20:14:49;;;;;;;;;;;;;;;;;;4992857;28;20287;-82
2022/08/07 20:17:14;;;;;;;;;;;;;;;;;;4990705;28;19917;-81
2022/08/07 20:19:40;;;;;;;;;;;;;;;;;;4990831;28;20376;-81
2022/08/07 20:22:05;;;;;;;;;;;;;;;;;;4990144;28;20001;-81
2022/08/07 20:24:30;;;;;;;;;;;;;;;;;;4983997;28;19918;-81
2022/08/07 20:26:55;;;;;;;;;;;;;;;;;;4987215;28;19960;-83
2022/08/07 20:29:20;;;;;;;;;;;;;;;;;;4988615;28;20241;-83
2022/08/07 20:31:45;;;;;;;;;;;;;;;;;;4993917;28;20399;-83
2022/08/07 20:34:11;;;;;;;;;;;;;;;;;;4987945;28;19969;-83
2022/08/07 20:36:36;;;;;;;;;;;;;;;;;;4985772;28;19960;-83